createdAt,value
2019-06-01T00:00:12.299Z,100755.03
2019-06-01T00:01:05.714Z,100752.80
2019-06-01T00:01:59.100Z,100749.80
2019-06-01T00:02:56.688Z,100750.47
2019-06-01T00:03:48.841Z,100754.02
2019-06-01T00:04:42.986Z,100752.96
2019-06-01T00:05:38.387Z,100748.39
2019-06-01T00:06:32.104Z,100751.02
2019-06-01T00:07:26.089Z,100750.63
2019-06-01T00:08:20.308Z,100749.50
2019-06-01T00:09:15.085Z,100757.17
2019-06-01T00:10:09.088Z,100755.48
2019-06-01T00:11:03.486Z,100755.86
2019-06-01T00:11:57.196Z,100758.27
2019-06-01T00:12:52.510Z,100758.73
2019-06-01T00:13:47.579Z,100754.63
2019-06-01T00:14:43.646Z,100756.96
2019-06-01T00:15:38.311Z,100754.34
2019-06-01T00:16:32.181Z,100749.22
2019-06-01T00:17:26.502Z,100753.99
2019-06-01T00:18:20.886Z,100748.17
2019-06-01T00:19:16.543Z,100753.95
2019-06-01T00:20:11.015Z,100748.53
2019-06-01T00:21:04.977Z,100747.77
2019-06-01T00:21:59.751Z,100748.70
2019-06-01T00:22:53.359Z,100743.00
2019-06-01T00:23:48.677Z,100753.21
2019-06-01T00:24:43.823Z,100749.55
2019-06-01T00:25:38.568Z,100755.06
2019-06-01T00:26:32.854Z,100748.42
2019-06-01T00:27:28.131Z,100750.20
2019-06-01T00:28:21.891Z,100754.12
2019-06-01T00:29:16.405Z,100750.58
2019-06-01T00:30:10.064Z,100749.91
2019-06-01T00:31:04.344Z,100750.08
2019-06-01T00:31:58.412Z,100753.28
2019-06-01T00:32:53.010Z,100749.35
2019-06-01T00:33:47.598Z,100747.56
2019-06-01T00:34:45.721Z,100748.57
2019-06-01T00:35:41.221Z,100752.90
2019-06-01T00:36:35.634Z,100751.48
2019-06-01T00:37:29.766Z,100749.60
2019-06-01T00:38:24.766Z,100745.66
2019-06-01T00:39:18.310Z,100748.47
2019-06-01T00:40:13.561Z,100754.75
2019-06-01T00:41:07.462Z,100752.28
2019-06-01T00:42:02.249Z,100748.94
2019-06-01T00:42:55.803Z,100751.99
2019-06-01T00:43:50.514Z,100757.61
2019-06-01T00:44:44.368Z,100753.46
2019-06-01T00:45:38.878Z,100755.61
2019-06-01T00:46:32.985Z,100757.00
2019-06-01T00:47:27.628Z,100755.13
2019-06-01T00:48:21.330Z,100756.48
2019-06-01T00:49:15.636Z,100756.05
2019-06-01T00:50:09.511Z,100752.05
2019-06-01T00:51:03.800Z,100751.66
2019-06-01T00:51:57.208Z,100756.16
2019-06-01T00:52:54.584Z,100756.46
2019-06-01T00:53:49.568Z,100752.62
2019-06-01T00:54:45.247Z,100755.59
2019-06-01T00:55:38.714Z,100753.76
2019-06-01T00:56:32.869Z,100751.98
2019-06-01T00:57:27.312Z,100754.88
2019-06-01T00:58:21.837Z,100754.88
2019-06-01T00:59:15.476Z,100753.38
2019-06-01T01:00:10.172Z,100750.38
2019-06-01T01:01:03.846Z,100756.61
2019-06-01T01:01:58.214Z,100746.50
2019-06-01T01:02:52.276Z,100750.81
2019-06-01T01:03:48.113Z,100751.66
2019-06-01T01:04:44.171Z,100757.81
2019-06-01T01:05:38.993Z,100754.16
2019-06-01T01:06:32.950Z,100752.16
2019-06-01T01:07:27.988Z,100754.48
2019-06-01T01:08:21.607Z,100757.94
2019-06-01T01:09:16.093Z,100755.84
2019-06-01T01:10:10.100Z,100750.89
2019-06-01T01:11:04.410Z,100759.20
2019-06-01T01:11:59.248Z,100753.31
2019-06-01T01:13:15.421Z,100757.89
2019-06-01T01:14:09.891Z,100759.85
2019-06-01T01:15:05.161Z,100757.89
2019-06-01T01:15:59.152Z,100756.20
2019-06-01T01:16:54.160Z,100760.13
2019-06-01T01:17:48.109Z,100755.16
2019-06-01T01:18:42.827Z,100760.94
2019-06-01T01:19:37.147Z,100765.00
2019-06-01T01:20:31.078Z,100758.63
2019-06-01T01:21:24.768Z,100762.85
2019-06-01T01:22:19.440Z,100757.59
2019-06-01T01:23:13.922Z,100761.31
2019-06-01T01:24:08.651Z,100758.05
2019-06-01T01:25:03.487Z,100750.75
2019-06-01T01:25:57.733Z,100751.83
2019-06-01T01:26:52.527Z,100752.78
2019-06-01T01:27:46.562Z,100756.82
2019-06-01T01:28:41.963Z,100754.67
2019-06-01T01:29:36.028Z,100752.25
2019-06-01T01:30:29.755Z,100751.44
2019-06-01T01:31:23.779Z,100752.55
2019-06-01T01:32:17.455Z,100753.66
2019-06-01T01:33:12.099Z,100744.21
2019-06-01T01:34:05.990Z,100754.20
2019-06-01T01:35:00.578Z,100750.20
2019-06-01T01:35:54.286Z,100754.28
2019-06-01T01:36:49.701Z,100749.32
2019-06-01T01:37:43.741Z,100753.86
2019-06-01T01:38:37.809Z,100752.71
2019-06-01T01:39:32.267Z,100744.88
2019-06-01T01:40:26.135Z,100757.48
2019-06-01T01:41:19.594Z,100754.41
2019-06-01T01:42:13.534Z,100756.17
2019-06-01T01:43:07.518Z,100756.09
2019-06-01T01:44:01.752Z,100756.94
2019-06-01T01:44:54.707Z,100752.64
2019-06-01T01:45:48.906Z,100749.83
2019-06-01T01:46:42.544Z,100752.44
2019-06-01T01:47:36.329Z,100751.13
2019-06-01T01:48:30.172Z,100745.60
2019-06-01T01:49:23.836Z,100751.05
2019-06-01T01:50:18.436Z,100749.14
2019-06-01T01:51:11.920Z,100748.48
2019-06-01T01:52:05.707Z,100747.70
2019-06-01T01:52:59.664Z,100747.70
2019-06-01T01:53:54.605Z,100747.41
2019-06-01T01:54:48.371Z,100743.75
2019-06-01T01:55:41.614Z,100744.21
2019-06-01T01:56:36.044Z,100746.75
2019-06-01T01:57:29.225Z,100743.91
2019-06-01T01:58:23.157Z,100742.98
2019-06-01T01:59:16.160Z,100743.62
2019-06-01T02:00:13.041Z,100740.48
2019-06-01T02:01:21.580Z,100744.33
2019-06-01T02:02:01.313Z,100741.67
2019-06-01T02:02:55.794Z,100742.32
2019-06-01T02:03:51.334Z,100745.55
2019-06-01T02:04:44.485Z,100742.63
2019-06-01T02:05:39.324Z,100747.55
2019-06-01T02:06:32.056Z,100735.94
2019-06-01T02:07:25.921Z,100735.94
2019-06-01T02:08:18.752Z,100739.02
2019-06-01T02:09:13.142Z,100740.48
2019-06-01T02:10:07.142Z,100743.20
2019-06-01T02:11:01.823Z,100739.43
2019-06-01T02:11:55.466Z,100739.97
2019-06-01T02:12:49.789Z,100738.59
2019-06-01T02:13:43.788Z,100742.42
2019-06-01T02:14:37.104Z,100736.73
2019-06-01T02:15:30.765Z,100742.66
2019-06-01T02:16:24.355Z,100743.22
2019-06-01T02:17:17.945Z,100745.91
2019-06-01T02:18:12.563Z,100743.84
2019-06-01T02:19:06.117Z,100737.61
2019-06-01T02:20:00.277Z,100738.59
2019-06-01T02:20:54.370Z,100741.05
2019-06-01T02:21:48.624Z,100734.52
2019-06-01T02:22:41.396Z,100738.05
2019-06-01T02:23:35.098Z,100728.91
2019-06-01T02:24:27.886Z,100732.28
2019-06-01T02:25:21.392Z,100729.56
2019-06-01T02:26:15.083Z,100734.41
2019-06-01T02:27:08.663Z,100736.66
2019-06-01T02:28:01.805Z,100733.59
2019-06-01T02:28:55.356Z,100737.40
2019-06-01T02:29:49.208Z,100728.64
2019-06-01T02:30:42.754Z,100733.94
2019-06-01T02:31:42.072Z,100734.79
2019-06-01T02:32:32.244Z,100729.37
2019-06-01T02:33:25.241Z,100721.98
2019-06-01T02:34:18.406Z,100734.25
2019-06-01T02:35:11.160Z,100734.05
2019-06-01T02:36:05.339Z,100733.36
2019-06-01T02:37:00.211Z,100731.98
2019-06-01T02:37:54.706Z,100730.36
2019-06-01T02:38:48.901Z,100729.70
2019-06-01T02:39:43.352Z,100722.71
2019-06-01T02:40:36.761Z,100728.83
2019-06-01T02:41:30.513Z,100724.55
2019-06-01T02:42:23.388Z,100724.94
2019-06-01T02:43:18.025Z,100727.19
2019-06-01T02:44:11.166Z,100728.83
2019-06-01T02:45:05.741Z,100724.72
2019-06-01T02:46:00.494Z,100732.09
2019-06-01T02:46:55.377Z,100732.34
2019-06-01T02:47:48.950Z,100734.66
2019-06-01T02:48:42.223Z,100732.15
2019-06-01T02:49:36.740Z,100732.15
2019-06-01T02:50:30.380Z,100728.77
2019-06-01T02:51:24.521Z,100728.69
2019-06-01T02:52:18.309Z,100728.30
2019-06-01T02:53:11.486Z,100728.77
2019-06-01T02:54:06.412Z,100725.69
2019-06-01T02:54:59.813Z,100728.23
2019-06-01T02:55:54.305Z,100730.98
2019-06-01T02:56:48.034Z,100730.53
2019-06-01T02:57:42.051Z,100729.30
2019-06-01T02:58:35.121Z,100727.61
2019-06-01T02:59:29.235Z,100728.25
2019-06-01T03:01:12.398Z,100723.55
2019-06-01T03:02:10.637Z,100731.92
2019-06-01T03:03:02.668Z,100732.23
2019-06-01T03:03:57.643Z,100727.86
2019-06-01T03:04:51.167Z,100728.70
2019-06-01T03:05:47.016Z,100727.14
2019-06-01T03:06:44.317Z,100726.69
2019-06-01T03:07:42.775Z,100732.95
2019-06-01T03:08:37.618Z,100730.53
2019-06-01T03:09:33.103Z,100733.73
2019-06-01T03:10:27.750Z,100734.05
2019-06-01T03:11:23.048Z,100738.09
2019-06-01T03:12:19.681Z,100738.51
2019-06-01T03:13:15.887Z,100733.98
2019-06-01T03:14:11.068Z,100731.44
2019-06-01T03:15:08.585Z,100738.44
2019-06-01T03:16:03.444Z,100728.17
2019-06-01T03:17:01.912Z,100735.55
2019-06-01T03:17:59.370Z,100737.05
2019-06-01T03:18:55.624Z,100735.89
2019-06-01T03:19:50.890Z,100741.55
2019-06-01T03:20:47.387Z,100738.36
2019-06-01T03:21:42.095Z,100735.61
2019-06-01T03:22:37.516Z,100738.61
2019-06-01T03:23:33.777Z,100737.18
2019-06-01T03:24:27.498Z,100745.55
2019-06-01T03:25:21.434Z,100734.08
2019-06-01T03:26:18.166Z,100736.62
2019-06-01T03:27:15.364Z,100737.23
2019-06-01T03:28:12.506Z,100742.98
2019-06-01T03:29:07.287Z,100747.38
2019-06-01T03:30:05.300Z,100750.23
2019-06-01T03:30:56.917Z,100743.96
2019-06-01T03:31:51.232Z,100745.27
2019-06-01T03:32:44.097Z,100748.55
2019-06-01T03:33:38.136Z,100750.77
2019-06-01T03:34:31.999Z,100748.55
2019-06-01T03:35:25.910Z,100753.00
2019-06-01T03:36:20.140Z,100746.34
2019-06-01T03:37:14.389Z,100750.69
2019-06-01T03:38:09.262Z,100755.24
2019-06-01T03:39:04.006Z,100748.23
2019-06-01T03:39:57.192Z,100751.99
2019-06-01T03:40:51.320Z,100756.23
2019-06-01T03:41:45.363Z,100752.39
2019-06-01T03:42:40.812Z,100749.24
2019-06-01T03:43:33.832Z,100755.92
2019-06-01T03:44:28.520Z,100755.80
2019-06-01T03:45:21.636Z,100756.33
2019-06-01T03:46:16.598Z,100754.56
2019-06-01T03:47:11.666Z,100752.91
2019-06-01T03:48:06.725Z,100750.83
2019-06-01T03:48:59.816Z,100752.98
2019-06-01T03:49:53.806Z,100750.19
2019-06-01T03:50:47.455Z,100751.10
2019-06-01T03:51:41.620Z,100751.87
2019-06-01T03:52:35.000Z,100748.72
2019-06-01T03:53:28.819Z,100747.94
2019-06-01T03:54:22.110Z,100753.23
2019-06-01T03:55:16.707Z,100752.86
2019-06-01T03:56:11.049Z,100749.66
2019-06-01T03:57:05.407Z,100754.56
2019-06-01T03:57:59.065Z,100755.20
2019-06-01T03:58:52.997Z,100752.13
2019-06-01T03:59:47.090Z,100750.90
2019-06-01T04:00:41.870Z,100753.19
2019-06-01T04:01:35.706Z,100756.66
2019-06-01T04:02:33.094Z,100753.45
2019-06-01T04:03:25.305Z,100756.80
2019-06-01T04:04:19.825Z,100759.06
2019-06-01T04:05:13.662Z,100759.13
2019-06-01T04:06:09.334Z,100750.06
2019-06-01T04:07:03.425Z,100752.75
2019-06-01T04:07:58.195Z,100757.83
2019-06-01T04:08:51.160Z,100756.19
2019-06-01T04:09:46.027Z,100755.87
2019-06-01T04:10:40.117Z,100754.89
2019-06-01T04:11:35.178Z,100754.81
2019-06-01T04:12:28.629Z,100754.17
2019-06-01T04:13:22.627Z,100757.09
2019-06-01T04:14:15.839Z,100752.20
2019-06-01T04:15:13.627Z,100757.50
2019-06-01T04:16:05.833Z,100760.77
2019-06-01T04:17:01.880Z,100759.84
2019-06-01T04:17:56.437Z,100758.80
2019-06-01T04:18:51.193Z,100757.75
2019-06-01T04:19:43.821Z,100756.38
2019-06-01T04:20:38.483Z,100752.63
2019-06-01T04:21:31.992Z,100754.55
2019-06-01T04:22:27.052Z,100750.42
2019-06-01T04:23:20.862Z,100750.95
2019-06-01T04:24:14.810Z,100745.27
2019-06-01T04:25:10.319Z,100744.97
2019-06-01T04:26:04.157Z,100735.81
2019-06-01T04:26:57.286Z,100741.89
2019-06-01T04:27:50.979Z,100743.86
2019-06-01T04:28:44.368Z,100737.12
2019-06-01T04:29:38.400Z,100738.36
2019-06-01T04:30:31.780Z,100733.90
2019-06-01T04:31:26.157Z,100740.27
2019-06-01T04:32:18.957Z,100736.84
2019-06-01T04:33:13.997Z,100740.38
2019-06-01T04:34:07.374Z,100747.70
2019-06-01T04:35:03.144Z,100741.63
2019-06-01T04:35:56.333Z,100741.33
2019-06-01T04:36:50.225Z,100740.71
2019-06-01T04:37:43.642Z,100742.41
2019-06-01T04:38:37.644Z,100741.70
2019-06-01T04:39:31.097Z,100739.56
2019-06-01T04:40:25.128Z,100744.25
2019-06-01T04:41:18.564Z,100740.02
2019-06-01T04:42:13.938Z,100738.89
2019-06-01T04:43:07.863Z,100739.66
2019-06-01T04:44:03.781Z,100743.13
2019-06-01T04:44:57.223Z,100734.42
2019-06-01T04:45:51.188Z,100743.45
2019-06-01T04:46:44.655Z,100738.20
2019-06-01T04:47:38.921Z,100741.08
2019-06-01T04:48:31.924Z,100743.04
2019-06-01T04:49:26.278Z,100743.42
2019-06-01T04:50:19.507Z,100744.28
2019-06-01T04:51:13.554Z,100738.14
2019-06-01T04:52:06.843Z,100741.25
2019-06-01T04:53:01.089Z,100742.83
2019-06-01T04:53:54.235Z,100744.05
2019-06-01T04:54:48.929Z,100742.32
2019-06-01T04:55:42.777Z,100745.70
2019-06-01T04:56:37.065Z,100745.96
2019-06-01T04:57:30.732Z,100745.42
2019-06-01T04:58:24.288Z,100745.27
2019-06-01T04:59:17.987Z,100747.80
2019-06-01T05:00:25.947Z,100746.96
2019-06-01T05:01:09.006Z,100748.58
2019-06-01T05:02:03.368Z,100748.50
2019-06-01T05:03:04.751Z,100747.39
2019-06-01T05:03:52.210Z,100743.86
2019-06-01T05:04:45.630Z,100749.20
2019-06-01T05:05:39.606Z,100746.24
2019-06-01T05:06:32.992Z,100750.91
2019-06-01T05:07:26.597Z,100748.17
2019-06-01T05:08:19.297Z,100751.79
2019-06-01T05:09:13.413Z,100751.67
2019-06-01T05:10:07.423Z,100754.48
2019-06-01T05:11:05.045Z,100751.75
2019-06-01T05:11:57.098Z,100748.02
2019-06-01T05:12:51.613Z,100755.44
2019-06-01T05:13:44.884Z,100761.36
2019-06-01T05:14:38.987Z,100760.09
2019-06-01T05:15:31.921Z,100758.28
2019-06-01T05:16:26.048Z,100761.09
2019-06-01T05:17:19.515Z,100765.28
2019-06-01T05:18:14.253Z,100761.59
2019-06-01T05:19:08.222Z,100770.70
2019-06-01T05:20:02.166Z,100762.55
2019-06-01T05:20:56.218Z,100763.63
2019-06-01T05:21:49.790Z,100768.08
2019-06-01T05:22:43.014Z,100766.77
2019-06-01T05:23:37.605Z,100767.74
2019-06-01T05:24:30.932Z,100766.43
2019-06-01T05:25:24.583Z,100772.23
2019-06-01T05:26:18.712Z,100773.52
2019-06-01T05:27:13.144Z,100777.01
2019-06-01T05:28:07.035Z,100777.20
2019-06-01T05:29:01.048Z,100767.78
2019-06-01T05:29:54.082Z,100771.90
2019-06-01T05:30:48.583Z,100771.55
2019-06-01T05:31:42.036Z,100774.94
2019-06-01T05:32:36.393Z,100778.16
2019-06-01T05:33:37.445Z,100773.27
2019-06-01T05:34:25.758Z,100776.80
2019-06-01T05:35:19.056Z,100775.39
2019-06-01T05:36:12.384Z,100773.34
2019-06-01T05:37:06.312Z,100776.16
2019-06-01T05:38:00.407Z,100771.00
2019-06-01T05:38:53.547Z,100772.66
2019-06-01T05:39:48.369Z,100778.19
2019-06-01T05:40:42.563Z,100773.42
2019-06-01T05:41:36.980Z,100785.70
2019-06-01T05:42:30.309Z,100780.33
2019-06-01T05:43:24.734Z,100779.57
2019-06-01T05:44:19.226Z,100782.56
2019-06-01T05:45:15.127Z,100779.27
2019-06-01T05:46:09.879Z,100783.00
2019-06-01T05:47:03.832Z,100779.16
2019-06-01T05:47:57.389Z,100780.25
2019-06-01T05:48:51.933Z,100783.11
2019-06-01T05:49:45.544Z,100776.57
2019-06-01T05:50:39.824Z,100777.58
2019-06-01T05:51:34.054Z,100779.78
2019-06-01T05:52:28.629Z,100780.03
2019-06-01T05:53:23.094Z,100778.18
2019-06-01T05:54:18.753Z,100777.30
2019-06-01T05:56:06.854Z,100775.47
2019-06-01T05:57:01.143Z,100776.94
2019-06-01T05:57:55.294Z,100775.64
2019-06-01T05:58:48.913Z,100782.20
2019-06-01T05:59:42.938Z,100780.89
2019-06-01T06:00:42.046Z,100777.66
2019-06-01T06:01:36.327Z,100787.82
2019-06-01T06:02:31.039Z,100779.14
2019-06-01T06:03:39.542Z,100778.12
2019-06-01T06:04:21.623Z,100780.58
2019-06-01T06:05:16.642Z,100780.54
2019-06-01T06:06:11.680Z,100781.19
2019-06-01T06:07:06.190Z,100775.87
2019-06-01T06:08:00.343Z,100780.91
2019-06-01T06:08:54.147Z,100779.59
2019-06-01T06:09:48.506Z,100780.36
2019-06-01T06:10:42.382Z,100781.30
2019-06-01T06:11:36.366Z,100778.05
2019-06-01T06:12:30.609Z,100779.08
2019-06-01T06:13:25.119Z,100773.38
2019-06-01T06:14:21.007Z,100781.70
2019-06-01T06:15:15.709Z,100776.49
2019-06-01T06:16:11.573Z,100776.70
2019-06-01T06:17:05.603Z,100771.98
2019-06-01T06:17:59.545Z,100774.59
2019-06-01T06:18:53.383Z,100787.73
2019-06-01T06:19:47.860Z,100784.84
2019-06-01T06:20:41.671Z,100778.30
2019-06-01T06:21:36.260Z,100785.01
2019-06-01T06:22:30.487Z,100787.62
2019-06-01T06:23:24.449Z,100784.47
2019-06-01T06:24:18.904Z,100786.24
2019-06-01T06:25:14.259Z,100788.31
2019-06-01T06:26:08.614Z,100785.31
2019-06-01T06:27:03.553Z,100780.81
2019-06-01T06:27:57.785Z,100787.45
2019-06-01T06:28:52.110Z,100787.91
2019-06-01T06:29:46.239Z,100776.02
2019-06-01T06:30:41.378Z,100783.92
2019-06-01T06:31:35.383Z,100784.09
2019-06-01T06:32:29.769Z,100777.27
2019-06-01T06:33:24.114Z,100781.98
2019-06-01T06:34:19.613Z,100787.74
2019-06-01T06:35:13.939Z,100780.91
2019-06-01T06:36:08.104Z,100782.22
2019-06-01T06:37:02.456Z,100781.62
2019-06-01T06:37:56.975Z,100782.31
2019-06-01T06:38:51.194Z,100779.50
2019-06-01T06:39:45.845Z,100777.98
2019-06-01T06:40:39.750Z,100781.17
2019-06-01T06:41:33.872Z,100781.23
2019-06-01T06:42:28.371Z,100780.68
2019-06-01T06:43:30.997Z,100782.30
2019-06-01T06:44:18.532Z,100781.73
2019-06-01T06:45:12.926Z,100779.98
2019-06-01T06:46:06.890Z,100773.95
2019-06-01T06:47:01.551Z,100782.05
2019-06-01T06:47:56.799Z,100776.77
2019-06-01T06:48:51.208Z,100778.89
2019-06-01T06:49:45.215Z,100778.02
2019-06-01T06:50:39.246Z,100777.27
2019-06-01T06:51:33.468Z,100778.02
2019-06-01T06:52:28.060Z,100770.70
2019-06-01T06:53:28.447Z,100772.80
2019-06-01T06:54:17.946Z,100775.89
2019-06-01T06:55:13.013Z,100773.80
2019-06-01T06:56:07.426Z,100772.56
2019-06-01T06:57:01.555Z,100776.03
2019-06-01T06:57:55.863Z,100777.83
2019-06-01T06:58:50.476Z,100773.23
2019-06-01T06:59:44.552Z,100768.30
2019-06-01T07:00:38.901Z,100772.23
2019-06-01T07:01:33.003Z,100768.35
2019-06-01T07:02:27.488Z,100773.00
2019-06-01T07:03:23.087Z,100773.88
2019-06-01T07:04:19.289Z,100776.01
2019-06-01T07:05:14.244Z,100781.52
2019-06-01T07:06:07.837Z,100775.42
2019-06-01T07:07:01.579Z,100776.54
2019-06-01T07:07:55.778Z,100779.41
2019-06-01T07:08:49.594Z,100772.53
2019-06-01T07:09:43.969Z,100779.64
2019-06-01T07:10:38.009Z,100772.53
2019-06-01T07:11:32.063Z,100775.00
2019-06-01T07:12:26.390Z,100775.14
2019-06-01T07:13:21.537Z,100775.03
2019-06-01T07:14:15.361Z,100774.80
2019-06-01T07:15:09.820Z,100776.41
2019-06-01T07:16:04.138Z,100779.25
2019-06-01T07:16:58.070Z,100780.73
2019-06-01T07:17:52.456Z,100781.30
2019-06-01T07:18:47.220Z,100783.56
2019-06-01T07:19:41.986Z,100777.16
2019-06-01T07:20:35.776Z,100783.13
2019-06-01T07:21:29.840Z,100782.28
2019-06-01T07:22:24.059Z,100776.82
2019-06-01T07:23:19.560Z,100779.01
2019-06-01T07:24:13.876Z,100778.88
2019-06-01T07:25:09.770Z,100777.59
2019-06-01T07:26:03.614Z,100780.33
2019-06-01T07:26:57.948Z,100773.98
2019-06-01T07:27:52.013Z,100777.69
2019-06-01T07:28:46.585Z,100782.79
2019-06-01T07:29:40.647Z,100781.64
2019-06-01T07:30:49.728Z,100778.10
2019-06-01T07:31:32.509Z,100778.52
2019-06-01T07:32:26.775Z,100779.42
2019-06-01T07:33:22.395Z,100777.62
2019-06-01T07:34:32.122Z,100780.81
2019-06-01T07:35:12.750Z,100779.57
2019-06-01T07:36:06.905Z,100780.66
2019-06-01T07:37:00.982Z,100781.66
2019-06-01T07:37:55.706Z,100774.16
2019-06-01T07:38:49.248Z,100779.29
2019-06-01T07:39:44.206Z,100775.00
2019-06-01T07:40:38.323Z,100778.41
2019-06-01T07:41:33.047Z,100770.44
2019-06-01T07:42:28.192Z,100776.10
2019-06-01T07:43:24.726Z,100770.09
2019-06-01T07:44:18.755Z,100776.39
2019-06-01T07:45:13.475Z,100777.45
2019-06-01T07:46:07.682Z,100774.55
2019-06-01T07:47:01.855Z,100769.45
2019-06-01T07:47:56.575Z,100772.09
2019-06-01T07:48:51.348Z,100769.15
2019-06-01T07:49:45.415Z,100768.11
2019-06-01T07:50:40.074Z,100770.46
2019-06-01T07:51:34.307Z,100771.87
2019-06-01T07:52:28.551Z,100769.15
2019-06-01T07:53:24.089Z,100768.73
2019-06-01T07:54:18.039Z,100768.14
2019-06-01T07:55:12.957Z,100775.87
2019-06-01T07:56:06.790Z,100765.70
2019-06-01T07:57:00.858Z,100770.61
2019-06-01T07:57:55.806Z,100765.13
2019-06-01T07:58:49.890Z,100768.97
2019-06-01T07:59:43.788Z,100763.45
2019-06-01T08:00:37.772Z,100762.41
2019-06-01T08:01:32.869Z,100763.14
2019-06-01T08:02:29.450Z,100760.15
2019-06-01T08:03:26.546Z,100762.78
2019-06-01T08:04:19.357Z,100759.94
2019-06-01T08:05:13.644Z,100763.88
2019-06-01T08:06:07.517Z,100762.45
2019-06-01T08:07:01.745Z,100764.62
2019-06-01T08:07:55.591Z,100760.41
2019-06-01T08:08:49.334Z,100766.09
2019-06-01T08:09:43.371Z,100766.09
2019-06-01T08:10:37.498Z,100759.55
2019-06-01T08:11:34.623Z,100762.19
2019-06-01T08:12:27.531Z,100767.72
2019-06-01T08:13:21.941Z,100766.36
2019-06-01T08:14:16.108Z,100763.03
2019-06-01T08:15:10.519Z,100768.69
2019-06-01T08:16:04.471Z,100762.83
2019-06-01T08:16:58.637Z,100755.06
2019-06-01T08:17:53.136Z,100758.43
2019-06-01T08:18:47.631Z,100751.95
2019-06-01T08:19:41.980Z,100753.30
2019-06-01T08:20:36.287Z,100757.97
2019-06-01T08:21:30.351Z,100756.07
2019-06-01T08:22:25.899Z,100754.48
2019-06-01T08:23:20.420Z,100751.03
2019-06-01T08:24:14.610Z,100749.34
2019-06-01T08:25:08.864Z,100754.16
2019-06-01T08:26:02.893Z,100742.86
2019-06-01T08:26:57.003Z,100745.29
2019-06-01T08:27:51.263Z,100746.95
2019-06-01T08:28:45.556Z,100746.73
2019-06-01T08:29:39.981Z,100739.03
2019-06-01T08:30:34.318Z,100745.63
2019-06-01T08:31:28.896Z,100746.35
2019-06-01T08:32:24.561Z,100738.55
2019-06-01T08:33:18.961Z,100747.17
2019-06-01T08:34:13.653Z,100745.74
2019-06-01T08:35:09.740Z,100749.00
2019-06-01T08:36:03.886Z,100749.84
2019-06-01T08:36:58.065Z,100744.31
2019-06-01T08:37:52.471Z,100748.24
2019-06-01T08:38:46.852Z,100741.07
2019-06-01T08:39:40.781Z,100741.20
2019-06-01T08:40:35.106Z,100750.42
2019-06-01T08:41:29.903Z,100753.81
2019-06-01T08:42:25.261Z,100743.72
2019-06-01T08:43:19.720Z,100749.83
2019-06-01T08:44:14.078Z,100744.28
2019-06-01T08:45:08.508Z,100746.59
2019-06-01T08:46:03.184Z,100742.02
2019-06-01T08:46:57.311Z,100739.16
2019-06-01T08:47:51.751Z,100745.30
2019-06-01T08:48:45.861Z,100742.88
2019-06-01T08:49:40.719Z,100737.33
2019-06-01T08:50:34.826Z,100737.98
2019-06-01T08:51:29.933Z,100737.84
2019-06-01T08:52:24.447Z,100738.92
2019-06-01T08:53:19.995Z,100738.30
2019-06-01T08:54:13.918Z,100741.44
2019-06-01T08:55:08.635Z,100742.23
2019-06-01T08:56:02.731Z,100746.91
2019-06-01T08:56:56.554Z,100739.02
2019-06-01T08:57:51.024Z,100745.13
2019-06-01T08:58:45.213Z,100737.20
2019-06-01T08:59:39.713Z,100739.35
2019-06-01T09:00:34.746Z,100738.64
2019-06-01T09:01:30.526Z,100739.25
2019-06-01T09:02:26.497Z,100731.44
2019-06-01T09:03:21.501Z,100742.73
2019-06-01T09:04:15.323Z,100730.33
2019-06-01T09:05:23.261Z,100733.70
2019-06-01T09:06:05.648Z,100727.34
2019-06-01T09:07:00.091Z,100726.74
2019-06-01T09:07:55.160Z,100730.20
2019-06-01T09:08:49.339Z,100732.90
2019-06-01T09:09:43.727Z,100727.08
2019-06-01T09:10:38.022Z,100735.27
2019-06-01T09:11:31.472Z,100725.53
2019-06-01T09:12:25.421Z,100723.02
2019-06-01T09:13:19.192Z,100728.13
2019-06-01T09:14:13.429Z,100722.49
2019-06-01T09:15:08.006Z,100732.30
2019-06-01T09:16:02.728Z,100725.22
2019-06-01T09:16:56.941Z,100734.95
2019-06-01T09:17:51.020Z,100726.66
2019-06-01T09:18:45.579Z,100733.23
2019-06-01T09:19:39.566Z,100732.75
2019-06-01T09:20:36.957Z,100728.06
2019-06-01T09:21:29.510Z,100740.20
2019-06-01T09:22:23.681Z,100729.64
2019-06-01T09:23:18.763Z,100731.08
2019-06-01T09:24:12.422Z,100737.20
2019-06-01T09:25:06.863Z,100732.08
2019-06-01T09:26:01.102Z,100729.15
2019-06-01T09:26:55.498Z,100725.27
2019-06-01T09:27:50.035Z,100726.98
2019-06-01T09:28:44.792Z,100725.50
2019-06-01T09:29:39.935Z,100727.67
2019-06-01T09:30:34.453Z,100723.15
2019-06-01T09:31:30.238Z,100719.73
2019-06-01T09:32:25.998Z,100728.67
2019-06-01T09:33:19.995Z,100729.16
2019-06-01T09:34:14.195Z,100729.49
2019-06-01T09:35:09.454Z,100732.34
2019-06-01T09:36:03.404Z,100737.02
2019-06-01T09:36:57.740Z,100732.02
2019-06-01T09:37:52.425Z,100730.22
2019-06-01T09:38:46.369Z,100729.21
2019-06-01T09:39:40.366Z,100730.81
2019-06-01T09:40:35.096Z,100729.23
2019-06-01T09:41:30.401Z,100735.68
2019-06-01T09:42:24.549Z,100736.05
2019-06-01T09:43:19.016Z,100726.95
2019-06-01T09:44:12.903Z,100728.55
2019-06-01T09:45:07.265Z,100729.18
2019-06-01T09:46:01.310Z,100731.98
2019-06-01T09:46:55.035Z,100728.23
2019-06-01T09:47:49.244Z,100727.70
2019-06-01T09:48:43.776Z,100732.66
2019-06-01T09:49:38.068Z,100729.70
2019-06-01T09:50:33.438Z,100730.81
2019-06-01T09:51:27.634Z,100729.59
2019-06-01T09:52:21.398Z,100725.27
2019-06-01T09:53:15.281Z,100724.92
2019-06-01T09:54:09.873Z,100720.23
2019-06-01T09:55:04.410Z,100728.13
2019-06-01T09:55:58.708Z,100724.92
2019-06-01T09:56:52.546Z,100727.56
2019-06-01T09:57:47.024Z,100719.70
2019-06-01T09:58:41.674Z,100724.92
2019-06-01T09:59:36.098Z,100725.05
2019-06-01T10:00:30.368Z,100716.71
2019-06-01T10:01:24.661Z,100717.89
2019-06-01T10:02:18.653Z,100718.73
2019-06-01T10:03:13.458Z,100712.75
2019-06-01T10:04:09.320Z,100719.69
2019-06-01T10:05:03.191Z,100717.89
2019-06-01T10:06:01.714Z,100717.70
2019-06-01T10:06:53.268Z,100707.13
2019-06-01T10:08:18.133Z,100708.11
2019-06-01T10:09:13.197Z,100709.52
2019-06-01T10:10:07.350Z,100710.88
2019-06-01T10:11:01.415Z,100671.74
2019-06-01T10:11:55.557Z,100699.64
2019-06-01T10:12:51.080Z,100707.81
2019-06-01T10:13:45.023Z,100703.30
2019-06-01T10:14:39.554Z,100698.42
2019-06-01T10:15:34.347Z,100695.52
2019-06-01T10:16:30.406Z,100705.56
2019-06-01T10:17:25.390Z,100706.98
2019-06-01T10:18:19.715Z,100706.36
2019-06-01T10:19:13.085Z,100708.90
2019-06-01T10:20:07.183Z,100709.59
2019-06-01T10:21:01.467Z,100703.30
2019-06-01T10:21:55.576Z,100704.58
2019-06-01T10:22:50.242Z,100703.95